sensor_id;sensor_type;location;lat;lon;timestamp;pressure;altitude;pressure_sealevel;temperature;humidity
39083;BME280;24834;44.444;26.098;2023-02-13T05:06:34;102710.25;;;3.42;
39083;BME280;24834;44.444;26.098;2023-02-13T06:08:25;102749.41;;;3.79;
39083;BME280;24834;44.444;26.098;2023-02-13T06:14:27;102756.97;;;3.97;
39083;BME280;24834;44.444;26.098;2023-02-13T06:20:30;102760.19;;;4.07;
39083;BME280;24834;44.444;26.098;2023-02-13T06:26:32;102763.19;;;3.96;
39083;BME280;24834;44.444;26.098;2023-02-13T06:32:37;102771.19;;;3.87;
39083;BME280;24834;44.444;26.098;2023-02-13T06:38:40;102772.16;;;4.62;
39083;BME280;24834;44.444;26.098;2023-02-13T06:44:42;102760.72;;;5.00;
39083;BME280;24834;44.444;26.098;2023-02-13T06:50:45;102759.91;;;5.14;
39083;BME280;24834;44.444;26.098;2023-02-13T06:56:47;102721.84;;;4.76;
39083;BME280;24834;44.444;26.098;2023-02-13T07:02:49;102749.41;;;5.37;
39083;BME280;24834;44.444;26.098;2023-02-13T07:08:52;102742.09;;;6.04;
39083;BME280;24834;44.444;26.098;2023-02-13T07:14:58;102751.50;;;5.63;
39083;BME280;24834;44.444;26.098;2023-02-13T07:21:00;102755.34;;;5.82;
39083;BME280;24834;44.444;26.098;2023-02-13T07:27:04;102754.19;;;5.84;
39083;BME280;24834;44.444;26.098;2023-02-13T07:33:08;102748.59;;;6.09;
39083;BME280;24834;44.444;26.098;2023-02-13T07:39:11;102730.63;;;6.20;
39083;BME280;24834;44.444;26.098;2023-02-13T07:45:17;102728.38;;;6.38;
39083;BME280;24834;44.444;26.098;2023-02-13T07:51:19;102726.28;;;6.55;
39083;BME280;24834;44.444;26.098;2023-02-13T07:57:21;102721.91;;;6.62;
39083;BME280;24834;44.444;26.098;2023-02-13T08:03:24;102722.44;;;6.85;
39083;BME280;24834;44.444;26.098;2023-02-13T08:09:27;102711.22;;;6.91;
39083;BME280;24834;44.444;26.098;2023-02-13T08:15:47;102713.44;;;6.94;
39083;BME280;24834;44.444;26.098;2023-02-13T08:21:50;102709.34;;;6.85;
39083;BME280;24834;44.444;26.098;2023-02-13T08:27:52;102698.00;;;6.72;
39083;BME280;24834;44.444;26.098;2023-02-13T08:33:55;102695.44;;;7.26;
39083;BME280;24834;44.444;26.098;2023-02-13T08:39:58;102686.81;;;7.32;
39083;BME280;24834;44.444;26.098;2023-02-13T08:46:00;102670.38;;;7.58;
39083;BME280;24834;44.444;26.098;2023-02-13T08:52:02;102661.88;;;7.29;
39083;BME280;24834;44.444;26.098;2023-02-13T08:58:05;102658.91;;;7.52;
39083;BME280;24834;44.444;26.098;2023-02-13T09:04:07;102637.38;;;7.83;
39083;BME280;24834;44.444;26.098;2023-02-13T09:10:10;102644.97;;;8.24;
39083;BME280;24834;44.444;26.098;2023-02-13T09:16:15;102635.72;;;8.08;
39083;BME280;24834;44.444;26.098;2023-02-13T09:22:17;102629.69;;;7.94;
39083;BME280;24834;44.444;26.098;2023-02-13T09:28:22;102631.91;;;8.75;
39083;BME280;24834;44.444;26.098;2023-02-13T09:34:25;102619.53;;;8.44;
39083;BME280;24834;44.444;26.098;2023-02-13T09:40:34;102604.28;;;8.72;
39083;BME280;24834;44.444;26.098;2023-02-13T09:46:42;102587.72;;;9.10;
39083;BME280;24834;44.444;26.098;2023-02-13T09:52:51;102588.56;;;9.04;
39083;BME280;24834;44.444;26.098;2023-02-13T09:59:02;102575.75;;;8.89;
39083;BME280;24834;44.444;26.098;2023-02-13T10:05:31;102559.03;;;9.15;
39083;BME280;24834;44.444;26.098;2023-02-13T10:12:19;102550.50;;;8.57;
39083;BME280;24834;44.444;26.098;2023-02-13T10:18:27;102531.69;;;8.98;
39083;BME280;24834;44.444;26.098;2023-02-13T10:30:53;102507.91;;;8.93;
39083;BME280;24834;44.444;26.098;2023-02-13T10:36:57;102497.81;;;8.89;
39083;BME280;24834;44.444;26.098;2023-02-13T10:43:07;102492.81;;;9.37;
39083;BME280;24834;44.444;26.098;2023-02-13T11:01:41;102466.25;;;9.46;
39083;BME280;24834;44.444;26.098;2023-02-13T11:07:47;102452.50;;;9.50;
39083;BME280;24834;44.444;26.098;2023-02-13T11:14:20;102453.06;;;9.88;
39083;BME280;24834;44.444;26.098;2023-02-13T11:20:29;102445.75;;;9.72;
39083;BME280;24834;44.444;26.098;2023-02-13T11:26:34;102439.47;;;9.92;
39083;BME280;24834;44.444;26.098;2023-02-13T11:32:37;102429.94;;;9.79;
39083;BME280;24834;44.444;26.098;2023-02-13T11:38:40;102425.19;;;9.99;
39083;BME280;24834;44.444;26.098;2023-02-13T11:44:48;102413.59;;;10.18;
39083;BME280;24834;44.444;26.098;2023-02-13T11:50:52;102409.09;;;10.49;
39083;BME280;24834;44.444;26.098;2023-02-13T12:03:29;102389.53;;;10.33;
39083;BME280;24834;44.444;26.098;2023-02-13T12:09:36;102383.59;;;10.72;
39083;BME280;24834;44.444;26.098;2023-02-13T12:15:41;102371.97;;;10.80;
39083;BME280;24834;44.444;26.098;2023-02-13T12:28:14;102364.84;;;11.04;
39083;BME280;24834;44.444;26.098;2023-02-13T12:48:01;102365.06;;;10.90;
39083;BME280;24834;44.444;26.098;2023-02-13T13:25:33;102316.72;;;11.20;
39083;BME280;24834;44.444;26.098;2023-02-13T13:31:39;102309.06;;;10.55;
39083;BME280;24834;44.444;26.098;2023-02-13T13:37:43;102313.28;;;10.68;
39083;BME280;24834;44.444;26.098;2023-02-13T13:44:02;102314.06;;;10.68;
39083;BME280;24834;44.444;26.098;2023-02-13T13:50:17;102310.88;;;10.66;
39083;BME280;24834;44.444;26.098;2023-02-13T13:56:20;102307.00;;;10.57;
39083;BME280;24834;44.444;26.098;2023-02-13T14:14:47;102307.75;;;10.11;
39083;BME280;24834;44.444;26.098;2023-02-13T14:20:55;102298.28;;;9.99;
39083;BME280;24834;44.444;26.098;2023-02-13T14:27:01;102290.81;;;9.84;
39083;BME280;24834;44.444;26.098;2023-02-13T14:33:24;102292.75;;;9.88;
39083;BME280;24834;44.444;26.098;2023-02-13T14:39:33;102283.03;;;9.89;
39083;BME280;24834;44.444;26.098;2023-02-13T14:52:07;102274.59;;;9.87;
39083;BME280;24834;44.444;26.098;2023-02-13T14:58:35;102270.44;;;9.68;
39083;BME280;24834;44.444;26.098;2023-02-13T15:04:44;102279.28;;;9.85;
39083;BME280;24834;44.444;26.098;2023-02-13T15:10:50;102267.81;;;9.68;
39083;BME280;24834;44.444;26.098;2023-02-13T15:16:56;102270.63;;;9.55;
39083;BME280;24834;44.444;26.098;2023-02-13T15:23:00;102271.41;;;9.55;
39083;BME280;24834;44.444;26.098;2023-02-13T15:29:15;102272.66;;;9.23;
39083;BME280;24834;44.444;26.098;2023-02-13T15:35:33;102280.38;;;9.18;
39083;BME280;24834;44.444;26.098;2023-02-13T15:41:44;102288.69;;;8.97;
39083;BME280;24834;44.444;26.098;2023-02-13T15:47:48;102284.78;;;8.87;
39083;BME280;24834;44.444;26.098;2023-02-13T15:54:02;102288.53;;;9.10;
39083;BME280;24834;44.444;26.098;2023-02-13T16:00:06;102284.25;;;9.15;
39083;BME280;24834;44.444;26.098;2023-02-13T16:06:15;102287.69;;;8.98;
39083;BME280;24834;44.444;26.098;2023-02-13T16:12:27;102285.59;;;9.06;
39083;BME280;24834;44.444;26.098;2023-02-13T16:18:29;102286.22;;;9.20;
39083;BME280;24834;44.444;26.098;2023-02-13T16:24:34;102283.81;;;9.18;
39083;BME280;24834;44.444;26.098;2023-02-13T16:30:42;102282.28;;;9.11;
39083;BME280;24834;44.444;26.098;2023-02-13T16:36:45;102268.06;;;9.00;
39083;BME280;24834;44.444;26.098;2023-02-13T16:42:48;102265.75;;;8.92;
39083;BME280;24834;44.444;26.098;2023-02-13T16:55:00;102271.78;;;8.74;
39083;BME280;24834;44.444;26.098;2023-02-13T17:01:13;102257.22;;;8.78;
39083;BME280;24834;44.444;26.098;2023-02-13T17:07:20;102261.91;;;8.76;
39083;BME280;24834;44.444;26.098;2023-02-13T17:13:23;102255.31;;;8.85;
39083;BME280;24834;44.444;26.098;2023-02-13T17:19:27;102254.72;;;8.65;
39083;BME280;24834;44.444;26.098;2023-02-13T17:25:38;102246.41;;;8.50;
39083;BME280;24834;44.444;26.098;2023-02-13T17:31:42;102238.56;;;8.68;
39083;BME280;24834;44.444;26.098;2023-02-13T17:37:44;102234.47;;;8.72;
39083;BME280;24834;44.444;26.098;2023-02-13T17:43:47;102236.78;;;8.44;
39083;BME280;24834;44.444;26.098;2023-02-13T17:49:50;102237.16;;;8.23;
39083;BME280;24834;44.444;26.098;2023-02-13T17:56:05;102242.25;;;8.18;
39083;BME280;24834;44.444;26.098;2023-02-13T18:02:19;102230.69;;;8.01;
39083;BME280;24834;44.444;26.098;2023-02-13T18:08:23;102221.16;;;7.81;
39083;BME280;24834;44.444;26.098;2023-02-13T18:14:29;102222.47;;;7.66;
39083;BME280;24834;44.444;26.098;2023-02-13T18:20:33;102223.53;;;7.58;
39083;BME280;24834;44.444;26.098;2023-02-13T18:26:35;102213.50;;;7.11;
39083;BME280;24834;44.444;26.098;2023-02-13T18:32:37;102227.06;;;7.39;
39083;BME280;24834;44.444;26.098;2023-02-13T18:38:41;102227.06;;;7.32;
39083;BME280;24834;44.444;26.098;2023-02-13T18:44:43;102216.41;;;7.34;
39083;BME280;24834;44.444;26.098;2023-02-13T18:50:46;102216.22;;;7.35;
39083;BME280;24834;44.444;26.098;2023-02-13T18:56:48;102208.44;;;7.16;
39083;BME280;24834;44.444;26.098;2023-02-13T19:02:51;102196.66;;;7.00;
39083;BME280;24834;44.444;26.098;2023-02-13T19:08:54;102199.84;;;7.02;
39083;BME280;24834;44.444;26.098;2023-02-13T19:14:57;102199.13;;;6.75;
39083;BME280;24834;44.444;26.098;2023-02-13T19:21:00;102196.88;;;6.85;
39083;BME280;24834;44.444;26.098;2023-02-13T19:27:04;102177.34;;;6.94;
39083;BME280;24834;44.444;26.098;2023-02-13T19:33:06;102183.28;;;6.64;
39083;BME280;24834;44.444;26.098;2023-02-13T19:39:09;102177.81;;;6.59;
39083;BME280;24834;44.444;26.098;2023-02-13T19:45:13;102171.44;;;6.48;
39083;BME280;24834;44.444;26.098;2023-02-13T19:51:18;102169.03;;;6.40;
39083;BME280;24834;44.444;26.098;2023-02-13T19:57:20;102163.41;;;6.23;
39083;BME280;24834;44.444;26.098;2023-02-13T20:03:22;102151.78;;;6.19;
39083;BME280;24834;44.444;26.098;2023-02-13T20:09:25;102133.06;;;6.35;
39083;BME280;24834;44.444;26.098;2023-02-13T20:15:28;102129.66;;;6.35;
39083;BME280;24834;44.444;26.098;2023-02-13T20:21:33;102122.41;;;6.30;
39083;BME280;24834;44.444;26.098;2023-02-13T20:27:36;102098.31;;;6.35;
39083;BME280;24834;44.444;26.098;2023-02-13T20:33:44;102095.94;;;6.20;
39083;BME280;24834;44.444;26.098;2023-02-13T20:39:46;102089.13;;;5.99;
39083;BME280;24834;44.444;26.098;2023-02-13T20:45:48;102095.97;;;6.00;
39083;BME280;24834;44.444;26.098;2023-02-13T20:51:52;102081.88;;;6.01;
39083;BME280;24834;44.444;26.098;2023-02-13T20:57:54;102077.22;;;6.23;
39083;BME280;24834;44.444;26.098;2023-02-13T21:03:58;102075.97;;;6.52;
39083;BME280;24834;44.444;26.098;2023-02-13T21:10:00;102077.13;;;6.63;
39083;BME280;24834;44.444;26.098;2023-02-13T21:16:12;102089.03;;;6.52;
39083;BME280;24834;44.444;26.098;2023-02-13T21:22:14;102089.47;;;6.42;
39083;BME280;24834;44.444;26.098;2023-02-13T21:28:16;102084.59;;;6.52;
39083;BME280;24834;44.444;26.098;2023-02-13T21:34:22;102091.50;;;6.21;
39083;BME280;24834;44.444;26.098;2023-02-13T21:40:24;102094.34;;;6.13;
39083;BME280;24834;44.444;26.098;2023-02-13T21:46:28;102083.88;;;6.06;
39083;BME280;24834;44.444;26.098;2023-02-13T21:52:31;102099.38;;;6.07;
39083;BME280;24834;44.444;26.098;2023-02-13T21:58:34;102104.38;;;5.89;
39083;BME280;24834;44.444;26.098;2023-02-13T22:04:36;102111.19;;;6.03;
39083;BME280;24834;44.444;26.098;2023-02-13T22:10:39;102102.16;;;5.73;
39083;BME280;24834;44.444;26.098;2023-02-13T22:16:42;102094.16;;;5.81;
39083;BME280;24834;44.444;26.098;2023-02-13T22:22:44;102093.56;;;5.66;
39083;BME280;24834;44.444;26.098;2023-02-13T22:28:46;102098.78;;;5.66;
39083;BME280;24834;44.444;26.098;2023-02-13T22:34:49;102101.34;;;5.40;
39083;BME280;24834;44.444;26.098;2023-02-13T22:40:52;102104.28;;;5.17;
39083;BME280;24834;44.444;26.098;2023-02-13T22:46:54;102099.09;;;5.30;
39083;BME280;24834;44.444;26.098;2023-02-13T22:52:57;102092.88;;;5.31;
39083;BME280;24834;44.444;26.098;2023-02-13T22:59:00;102097.06;;;5.26;
39083;BME280;24834;44.444;26.098;2023-02-13T23:05:02;102088.84;;;5.15;
39083;BME280;24834;44.444;26.098;2023-02-13T23:11:07;102085.22;;;5.17;
39083;BME280;24834;44.444;26.098;2023-02-13T23:17:28;102091.41;;;5.09;
39083;BME280;24834;44.444;26.098;2023-02-13T23:23:49;102095.22;;;5.06;
39083;BME280;24834;44.444;26.098;2023-02-13T23:29:52;102091.75;;;4.86;
39083;BME280;24834;44.444;26.098;2023-02-13T23:35:55;102088.72;;;4.83;
39083;BME280;24834;44.444;26.098;2023-02-13T23:41:57;102103.44;;;4.62;
39083;BME280;24834;44.444;26.098;2023-02-13T23:47:59;102119.03;;;4.90;
39083;BME280;24834;44.444;26.098;2023-02-13T23:54:02;102112.09;;;4.76;
